Walker, Iowa
Current Conditions -  °F | °C
As of 5:55 PM on Sunday 23 Nov 2014 (Local Time) from KVTI Reporting Station
Moderate Fog Moderate Fog  
Wind Chill: 10°   Ceiling: 100
Heat Index: 10°   Visibility: 0.5mi
Dew Point: 10°   Wind: 0mph
Humidity: 96%   Direction: NA
Pressure: 29.31"   Gusts: NA
Location:  42.29°N, 91.78°W
Report Text: KVTI 232355Z AUTO 00000KT 1/2SM FG OVC001 10/10 A2931 RMK AO2 60013 T01010095 10101 20101
Loading
Personal Weather Stations






























Interactive Weather Map New forecast layout! Learn more

10-Day Weather Forecast

Advertisements
Track Severe Weather on mobile